EAL120 MRLB-MHTG
Flight info
| Callsign | EAL120 |
|---|---|
| Flight time | 1h 20m |
| Altitude | 29000 |
| Route | CAPUL2 IMOLA UM328 MGA UA502 LIBIS LIBIS1A |
| Aircraft | L101/H-SDFHIRWXY/S |
Departure
| Time | 2026-05-07 20:35 |
|---|---|
| Airport | Daniel Oduber Quirós International Airport (MRLB) |
Arrival
| Time | 2026-05-07 21:56 |
|---|---|
| Airport | Toncontín Airport (MHTG) |
| Time | Latitude | Longitude | Altitude | Speed | Heading |
|---|---|---|---|---|---|
| 2026-05-07 19:49 | 10.59902 | -85.53781 | 289 ft | 0 kts | 340° |
| 2026-05-07 20:23 | 10.59881 | -85.53773 | 289 ft | 4 kts | 340° |
| 2026-05-07 20:24 | 10.59856 | -85.53763 | 288 ft | 4 kts | 331° |
| 2026-05-07 20:24 | 10.59835 | -85.53747 | 294 ft | 4 kts | 304° |
| 2026-05-07 20:24 | 10.59827 | -85.53725 | 294 ft | 3 kts | 253° |
| 2026-05-07 20:24 | 10.59828 | -85.53722 | 294 ft | 7 kts | 250° |
| 2026-05-07 20:28 | 10.59824 | -85.53734 | 294 ft | 5 kts | 250° |
| 2026-05-07 20:28 | 10.59804 | -85.53790 | 289 ft | 11 kts | 250° |
| 2026-05-07 20:28 | 10.59754 | -85.53861 | 286 ft | 14 kts | 207° |
| 2026-05-07 20:28 | 10.59688 | -85.53859 | 286 ft | 1 kts | 169° |
| 2026-05-07 20:29 | 10.59685 | -85.53858 | 285 ft | 0 kts | 166° |
| 2026-05-07 20:29 | 10.59683 | -85.53858 | 285 ft | 0 kts | 165° |
| 2026-05-07 20:29 | 10.59709 | -85.53866 | 286 ft | 4 kts | 157° |
| 2026-05-07 20:29 | 10.59736 | -85.53877 | 286 ft | 5 kts | 157° |
| 2026-05-07 20:30 | 10.59765 | -85.53890 | 289 ft | 5 kts | 156° |
| 2026-05-07 20:30 | 10.59757 | -85.53883 | 290 ft | 1 kts | 136° |
| 2026-05-07 20:30 | 10.59755 | -85.53836 | 286 ft | 14 kts | 58° |
| 2026-05-07 20:30 | 10.59813 | -85.53752 | 288 ft | 17 kts | 63° |
| 2026-05-07 20:31 | 10.59861 | -85.53628 | 286 ft | 21 kts | 69° |
| 2026-05-07 20:31 | 10.59915 | -85.53475 | 286 ft | 25 kts | 70° |
| 2026-05-07 20:31 | 10.59942 | -85.53364 | 286 ft | 13 kts | 107° |
| 2026-05-07 20:31 | 10.59885 | -85.53327 | 285 ft | 9 kts | 160° |
| 2026-05-07 20:32 | 10.59867 | -85.53320 | 285 ft | 0 kts | 159° |
| 2026-05-07 20:34 | 10.59839 | -85.53309 | 285 ft | 9 kts | 159° |
| 2026-05-07 20:35 | 10.59757 | -85.53306 | 283 ft | 14 kts | 225° |
| 2026-05-07 20:35 | 10.59724 | -85.53367 | 284 ft | 31 kts | 248° |
| 2026-05-07 20:35 | 10.59524 | -85.53932 | 285 ft | 135 kts | 251° |
| 2026-05-07 20:35 | 10.59133 | -85.54949 | 1094 ft | 157 kts | 250° |
| 2026-05-07 20:36 | 10.58762 | -85.55959 | 2332 ft | 158 kts | 250° |
| 2026-05-07 20:36 | 10.58629 | -85.57118 | 3194 ft | 181 kts | 278° |
| 2026-05-07 20:36 | 10.59282 | -85.58356 | 3725 ft | 220 kts | 317° |
| 2026-05-07 20:36 | 10.60662 | -85.59098 | 4333 ft | 232 kts | 350° |
| 2026-05-07 20:37 | 10.62254 | -85.59001 | 4794 ft | 230 kts | 19° |
| 2026-05-07 20:37 | 10.63725 | -85.58370 | 5237 ft | 232 kts | 28° |
| 2026-05-07 20:37 | 10.65255 | -85.57791 | 5427 ft | 237 kts | 17° |
| 2026-05-07 20:37 | 10.66901 | -85.57638 | 5674 ft | 238 kts | 0° |
| 2026-05-07 20:38 | 10.68558 | -85.57906 | 6126 ft | 254 kts | 349° |
| 2026-05-07 20:38 | 10.70350 | -85.58426 | 6902 ft | 279 kts | 345° |
| 2026-05-07 20:38 | 10.72229 | -85.59066 | 7588 ft | 288 kts | 343° |
| 2026-05-07 20:38 | 10.74130 | -85.59767 | 8290 ft | 293 kts | 342° |
| 2026-05-07 20:39 | 10.76043 | -85.60503 | 9027 ft | 296 kts | 341° |
| 2026-05-07 20:39 | 10.77980 | -85.61263 | 9782 ft | 299 kts | 341° |
| 2026-05-07 20:39 | 10.79930 | -85.62038 | 10451 ft | 303 kts | 341° |
| 2026-05-07 20:39 | 10.81913 | -85.62833 | 11160 ft | 313 kts | 341° |
| 2026-05-07 20:40 | 10.84034 | -85.63680 | 11851 ft | 341 kts | 340° |
| 2026-05-07 20:40 | 10.86243 | -85.64571 | 12834 ft | 336 kts | 340° |
| 2026-05-07 20:40 | 10.88389 | -85.65446 | 13739 ft | 338 kts | 340° |
| 2026-05-07 20:40 | 10.90623 | -85.66356 | 14085 ft | 355 kts | 340° |
| 2026-05-07 20:41 | 10.92997 | -85.67316 | 14296 ft | 378 kts | 340° |
| 2026-05-07 20:41 | 10.95522 | -85.68336 | 14394 ft | 402 kts | 340° |
| 2026-05-07 20:41 | 10.98090 | -85.69380 | 14656 ft | 380 kts | 340° |
| 2026-05-07 20:41 | 10.99679 | -85.70034 | 15003 ft | 366 kts | 340° |
| 2026-05-07 20:42 | 11.02043 | -85.71005 | 15635 ft | 368 kts | 340° |
| 2026-05-07 20:42 | 11.04432 | -85.71978 | 16278 ft | 372 kts | 340° |
| 2026-05-07 20:42 | 11.06856 | -85.72959 | 16915 ft | 378 kts | 340° |
| 2026-05-07 20:42 | 11.09315 | -85.73955 | 17558 ft | 382 kts | 340° |
| 2026-05-07 20:43 | 11.11795 | -85.74963 | 18215 ft | 385 kts | 340° |
| 2026-05-07 20:43 | 11.14287 | -85.75980 | 18804 ft | 386 kts | 340° |
| 2026-05-07 20:43 | 11.16794 | -85.77001 | 19417 ft | 390 kts | 340° |
| 2026-05-07 20:43 | 11.19321 | -85.78030 | 20040 ft | 393 kts | 341° |
| 2026-05-07 20:44 | 11.21875 | -85.79066 | 20677 ft | 398 kts | 341° |
| 2026-05-07 20:44 | 11.24464 | -85.80113 | 21317 ft | 402 kts | 341° |
| 2026-05-07 20:44 | 11.27078 | -85.81171 | 21986 ft | 407 kts | 341° |
| 2026-05-07 20:44 | 11.29724 | -85.82243 | 22655 ft | 411 kts | 341° |
| 2026-05-07 20:45 | 11.32402 | -85.83327 | 23348 ft | 416 kts | 342° |
| 2026-05-07 20:45 | 11.35106 | -85.84421 | 23942 ft | 421 kts | 342° |
| 2026-05-07 20:45 | 11.37837 | -85.85527 | 24536 ft | 426 kts | 341° |
| 2026-05-07 20:45 | 11.40614 | -85.86651 | 25043 ft | 436 kts | 341° |
| 2026-05-07 20:46 | 11.43469 | -85.87803 | 25181 ft | 457 kts | 341° |
| 2026-05-07 20:46 | 11.46498 | -85.89025 | 25267 ft | 478 kts | 341° |
| 2026-05-07 20:46 | 11.49643 | -85.90300 | 25408 ft | 495 kts | 341° |
| 2026-05-07 20:46 | 11.52871 | -85.91611 | 25906 ft | 503 kts | 341° |
| 2026-05-07 20:47 | 11.56159 | -85.92949 | 26378 ft | 513 kts | 341° |
| 2026-05-07 20:47 | 11.59495 | -85.94304 | 26976 ft | 519 kts | 341° |
| 2026-05-07 20:47 | 11.62856 | -85.95669 | 27782 ft | 521 kts | 341° |
| 2026-05-07 20:47 | 11.66214 | -85.97036 | 28876 ft | 515 kts | 340° |
| 2026-05-07 20:48 | 11.69513 | -85.98380 | 30121 ft | 509 kts | 340° |
| 2026-05-07 20:48 | 11.72835 | -85.99730 | 30269 ft | 517 kts | 340° |
| 2026-05-07 20:48 | 11.76176 | -86.01086 | 30207 ft | 516 kts | 340° |
| 2026-05-07 20:48 | 11.79504 | -86.02439 | 30099 ft | 515 kts | 340° |
| 2026-05-07 20:49 | 11.82834 | -86.03792 | 29965 ft | 515 kts | 340° |
| 2026-05-07 20:49 | 11.89508 | -86.06506 | 29886 ft | 515 kts | 340° |
| 2026-05-07 20:50 | 11.96170 | -86.09215 | 29864 ft | 516 kts | 340° |
| 2026-05-07 20:50 | 12.02797 | -86.11912 | 29853 ft | 516 kts | 340° |
| 2026-05-07 20:51 | 12.09474 | -86.14630 | 29856 ft | 517 kts | 340° |
| 2026-05-07 20:51 | 12.15816 | -86.18017 | 29851 ft | 501 kts | 326° |
| 2026-05-07 20:51 | 12.18572 | -86.20099 | 29858 ft | 488 kts | 326° |
| 2026-05-07 20:52 | 12.21329 | -86.22098 | 29858 ft | 486 kts | 328° |
| 2026-05-07 20:52 | 12.26941 | -86.25955 | 29853 ft | 486 kts | 328° |
| 2026-05-07 20:53 | 12.32467 | -86.29937 | 29848 ft | 486 kts | 326° |
| 2026-05-07 20:53 | 12.37958 | -86.33982 | 29843 ft | 486 kts | 326° |
| 2026-05-07 20:54 | 12.43447 | -86.38021 | 29844 ft | 486 kts | 326° |
| 2026-05-07 20:54 | 12.48903 | -86.42044 | 29846 ft | 486 kts | 326° |
| 2026-05-07 20:55 | 12.54395 | -86.46101 | 29848 ft | 486 kts | 326° |
| 2026-05-07 20:55 | 12.59883 | -86.50157 | 29845 ft | 486 kts | 326° |
| 2026-05-07 20:56 | 12.65368 | -86.54213 | 29850 ft | 486 kts | 326° |
| 2026-05-07 20:56 | 12.70854 | -86.58272 | 29847 ft | 486 kts | 326° |
| 2026-05-07 20:57 | 12.76310 | -86.62312 | 29855 ft | 487 kts | 326° |
| 2026-05-07 20:57 | 12.81806 | -86.66382 | 29849 ft | 487 kts | 326° |
| 2026-05-07 20:57 | 12.84560 | -86.68422 | 29683 ft | 490 kts | 326° |
| 2026-05-07 20:58 | 12.87328 | -86.70473 | 28935 ft | 490 kts | 326° |
| 2026-05-07 20:58 | 12.90066 | -86.72505 | 28147 ft | 482 kts | 326° |
| 2026-05-07 20:58 | 12.92765 | -86.74509 | 27396 ft | 475 kts | 326° |
| 2026-05-07 20:58 | 12.95422 | -86.76486 | 26671 ft | 469 kts | 326° |
| 2026-05-07 20:59 | 12.98043 | -86.78454 | 25956 ft | 464 kts | 326° |
| 2026-05-07 20:59 | 13.00625 | -86.80407 | 25269 ft | 459 kts | 326° |
| 2026-05-07 20:59 | 13.03180 | -86.82340 | 24591 ft | 454 kts | 326° |
| 2026-05-07 20:59 | 13.05713 | -86.84251 | 23940 ft | 449 kts | 326° |
| 2026-05-07 21:00 | 13.08215 | -86.86135 | 23261 ft | 444 kts | 326° |
| 2026-05-07 21:00 | 13.10696 | -86.88002 | 22487 ft | 440 kts | 326° |
| 2026-05-07 21:00 | 13.13117 | -86.89825 | 21751 ft | 434 kts | 326° |
| 2026-05-07 21:00 | 13.15542 | -86.91641 | 21016 ft | 428 kts | 326° |
| 2026-05-07 21:01 | 13.17938 | -86.93415 | 20311 ft | 422 kts | 326° |
| 2026-05-07 21:01 | 13.20307 | -86.95161 | 19625 ft | 417 kts | 326° |
| 2026-05-07 21:01 | 13.22651 | -86.96889 | 18939 ft | 412 kts | 325° |
| 2026-05-07 21:01 | 13.24967 | -86.98599 | 18269 ft | 407 kts | 325° |
| 2026-05-07 21:02 | 13.27254 | -87.00290 | 17520 ft | 403 kts | 325° |
| 2026-05-07 21:02 | 13.29515 | -87.01965 | 16776 ft | 398 kts | 325° |
| 2026-05-07 21:02 | 13.31753 | -87.03623 | 16046 ft | 394 kts | 325° |
| 2026-05-07 21:02 | 13.33963 | -87.05257 | 15344 ft | 389 kts | 325° |
| 2026-05-07 21:03 | 13.36148 | -87.06873 | 14660 ft | 385 kts | 326° |
| 2026-05-07 21:03 | 13.38306 | -87.08468 | 13973 ft | 380 kts | 326° |
| 2026-05-07 21:03 | 13.40439 | -87.10046 | 13235 ft | 376 kts | 326° |
| 2026-05-07 21:03 | 13.42549 | -87.11608 | 12496 ft | 371 kts | 326° |
| 2026-05-07 21:04 | 13.44605 | -87.13128 | 11781 ft | 366 kts | 326° |
| 2026-05-07 21:04 | 13.46685 | -87.14666 | 11142 ft | 359 kts | 326° |
| 2026-05-07 21:04 | 13.48649 | -87.16123 | 10987 ft | 341 kts | 326° |
| 2026-05-07 21:04 | 13.50488 | -87.17489 | 10960 ft | 311 kts | 326° |
| 2026-05-07 21:05 | 13.52216 | -87.18772 | 10968 ft | 305 kts | 326° |
| 2026-05-07 21:05 | 13.53944 | -87.20050 | 10982 ft | 307 kts | 326° |
| 2026-05-07 21:05 | 13.55685 | -87.21336 | 10972 ft | 309 kts | 326° |
| 2026-05-07 21:05 | 13.57432 | -87.22629 | 10950 ft | 309 kts | 326° |
| 2026-05-07 21:06 | 13.59176 | -87.23892 | 10938 ft | 302 kts | 330° |
| 2026-05-07 21:06 | 13.61076 | -87.24691 | 10915 ft | 292 kts | 351° |
| 2026-05-07 21:06 | 13.63089 | -87.24939 | 10827 ft | 293 kts | 358° |
| 2026-05-07 21:06 | 13.65117 | -87.25175 | 10529 ft | 293 kts | 353° |
| 2026-05-07 21:07 | 13.67111 | -87.25580 | 10189 ft | 291 kts | 349° |
| 2026-05-07 21:07 | 13.69081 | -87.26001 | 9839 ft | 287 kts | 351° |
| 2026-05-07 21:07 | 13.71023 | -87.26312 | 9474 ft | 284 kts | 355° |
| 2026-05-07 21:07 | 13.72980 | -87.26514 | 9204 ft | 279 kts | 357° |
| 2026-05-07 21:08 | 13.74862 | -87.26655 | 9069 ft | 262 kts | 358° |
| 2026-05-07 21:08 | 13.76654 | -87.26780 | 9028 ft | 256 kts | 359° |
| 2026-05-07 21:08 | 13.78444 | -87.26902 | 9063 ft | 258 kts | 358° |
| 2026-05-07 21:08 | 13.80245 | -87.27021 | 9052 ft | 260 kts | 358° |
| 2026-05-07 21:09 | 13.82048 | -87.27138 | 9033 ft | 260 kts | 359° |
| 2026-05-07 21:09 | 13.83832 | -87.27251 | 9119 ft | 255 kts | 359° |
| 2026-05-07 21:09 | 13.85625 | -87.27278 | 9050 ft | 259 kts | 5° |
| 2026-05-07 21:09 | 13.87400 | -87.26956 | 8933 ft | 260 kts | 15° |
| 2026-05-07 21:10 | 13.89110 | -87.26461 | 8607 ft | 251 kts | 17° |
| 2026-05-07 21:10 | 13.90777 | -87.26008 | 8310 ft | 245 kts | 15° |
| 2026-05-07 21:10 | 13.92431 | -87.25602 | 8167 ft | 244 kts | 15° |
| 2026-05-07 21:10 | 13.94078 | -87.25176 | 8104 ft | 244 kts | 17° |
| 2026-05-07 21:11 | 13.95708 | -87.24701 | 8068 ft | 243 kts | 18° |
| 2026-05-07 21:11 | 13.97321 | -87.24178 | 8060 ft | 244 kts | 20° |
| 2026-05-07 21:11 | 14.00543 | -87.23081 | 8048 ft | 243 kts | 20° |
| 2026-05-07 21:12 | 14.02146 | -87.22528 | 8050 ft | 243 kts | 20° |
| 2026-05-07 21:12 | 14.03805 | -87.22197 | 8006 ft | 247 kts | 359° |
| 2026-05-07 21:12 | 14.05427 | -87.22685 | 7999 ft | 250 kts | 331° |
| 2026-05-07 21:12 | 14.06665 | -87.23937 | 8031 ft | 253 kts | 302° |
| 2026-05-07 21:13 | 14.07199 | -87.25645 | 8039 ft | 253 kts | 274° |
| 2026-05-07 21:13 | 14.06902 | -87.27410 | 8053 ft | 250 kts | 244° |
| 2026-05-07 21:13 | 14.05851 | -87.28801 | 8053 ft | 246 kts | 217° |
| 2026-05-07 21:13 | 14.04383 | -87.29691 | 8074 ft | 245 kts | 204° |
| 2026-05-07 21:14 | 14.02807 | -87.30354 | 8061 ft | 243 kts | 194° |
| 2026-05-07 21:14 | 14.01144 | -87.30415 | 8006 ft | 238 kts | 166° |
| 2026-05-07 21:14 | 13.99702 | -87.29636 | 8006 ft | 236 kts | 137° |
| 2026-05-07 21:14 | 13.98831 | -87.28222 | 8039 ft | 237 kts | 108° |
| 2026-05-07 21:15 | 13.98749 | -87.26541 | 8044 ft | 238 kts | 79° |
| 2026-05-07 21:15 | 13.99488 | -87.25024 | 8047 ft | 240 kts | 50° |
| 2026-05-07 21:15 | 14.00846 | -87.24023 | 8066 ft | 243 kts | 28° |
| 2026-05-07 21:15 | 14.02423 | -87.23380 | 8082 ft | 244 kts | 20° |
| 2026-05-07 21:16 | 14.04022 | -87.22860 | 8070 ft | 244 kts | 17° |
| 2026-05-07 21:16 | 14.05722 | -87.22781 | 8005 ft | 249 kts | 350° |
| 2026-05-07 21:16 | 14.07274 | -87.23549 | 8009 ft | 251 kts | 321° |
| 2026-05-07 21:16 | 14.08295 | -87.24987 | 8034 ft | 251 kts | 292° |
| 2026-05-07 21:17 | 14.08540 | -87.26750 | 8047 ft | 251 kts | 263° |
| 2026-05-07 21:17 | 14.07956 | -87.28416 | 8044 ft | 248 kts | 234° |
| 2026-05-07 21:17 | 14.06705 | -87.29605 | 8056 ft | 244 kts | 210° |
| 2026-05-07 21:17 | 14.05187 | -87.30393 | 8087 ft | 244 kts | 200° |
| 2026-05-07 21:18 | 14.03555 | -87.30845 | 8072 ft | 243 kts | 187° |
| 2026-05-07 21:18 | 14.01894 | -87.31039 | 8049 ft | 234 kts | 182° |
| 2026-05-07 21:18 | 14.00333 | -87.31075 | 8074 ft | 216 kts | 175° |
| 2026-05-07 21:18 | 13.98840 | -87.30919 | 8128 ft | 218 kts | 171° |
| 2026-05-07 21:19 | 13.97368 | -87.30746 | 8167 ft | 216 kts | 174° |
| 2026-05-07 21:19 | 13.95847 | -87.30677 | 8064 ft | 219 kts | 176° |
| 2026-05-07 21:19 | 13.94322 | -87.30654 | 7832 ft | 218 kts | 177° |
| 2026-05-07 21:19 | 13.92818 | -87.30725 | 7701 ft | 217 kts | 186° |
| 2026-05-07 21:20 | 13.91368 | -87.31072 | 7605 ft | 210 kts | 193° |
| 2026-05-07 21:20 | 13.89983 | -87.31492 | 7520 ft | 205 kts | 190° |
| 2026-05-07 21:20 | 13.88594 | -87.31330 | 7392 ft | 202 kts | 154° |
| 2026-05-07 21:20 | 13.87611 | -87.30384 | 7284 ft | 193 kts | 118° |
| 2026-05-07 21:21 | 13.87409 | -87.29056 | 7217 ft | 190 kts | 83° |
| 2026-05-07 21:21 | 13.88033 | -87.27866 | 7157 ft | 194 kts | 47° |
| 2026-05-07 21:21 | 13.89251 | -87.27271 | 7087 ft | 200 kts | 12° |
| 2026-05-07 21:21 | 13.90627 | -87.27438 | 7058 ft | 201 kts | 346° |
| 2026-05-07 21:22 | 13.91930 | -87.27977 | 6785 ft | 208 kts | 349° |
| 2026-05-07 21:22 | 13.93331 | -87.28050 | 6271 ft | 199 kts | 16° |
| 2026-05-07 21:22 | 13.94569 | -87.27577 | 5909 ft | 181 kts | 37° |
| 2026-05-07 21:22 | 13.95643 | -87.26823 | 5839 ft | 192 kts | 39° |
| 2026-05-07 21:23 | 13.96737 | -87.25998 | 5634 ft | 192 kts | 48° |
| 2026-05-07 21:23 | 13.97487 | -87.24868 | 5263 ft | 187 kts | 72° |
| 2026-05-07 21:23 | 13.97953 | -87.23684 | 4753 ft | 172 kts | 71° |
| 2026-05-07 21:23 | 13.98555 | -87.22654 | 4245 ft | 164 kts | 53° |
| 2026-05-07 21:24 | 13.99449 | -87.22006 | 4103 ft | 156 kts | 22° |
| 2026-05-07 21:24 | 14.00533 | -87.21738 | 4063 ft | 167 kts | 20° |
| 2026-05-07 21:24 | 14.01584 | -87.21204 | 4098 ft | 168 kts | 39° |
| 2026-05-07 21:24 | 14.02687 | -87.20646 | 4159 ft | 187 kts | 14° |
| 2026-05-07 21:25 | 14.03909 | -87.20977 | 3946 ft | 193 kts | 321° |
| 2026-05-07 21:25 | 14.04612 | -87.22022 | 3779 ft | 157 kts | 291° |
| 2026-05-07 21:25 | 14.04874 | -87.23034 | 3728 ft | 148 kts | 274° |
| 2026-05-07 21:25 | 14.04980 | -87.24093 | 4349 ft | 156 kts | 279° |
| 2026-05-07 21:26 | 14.05189 | -87.25229 | 5161 ft | 172 kts | 282° |
| 2026-05-07 21:26 | 14.05512 | -87.26538 | 6012 ft | 198 kts | 284° |
| 2026-05-07 21:26 | 14.05853 | -87.27895 | 7125 ft | 193 kts | 283° |
| 2026-05-07 21:26 | 14.06181 | -87.29262 | 8259 ft | 205 kts | 284° |
| 2026-05-07 21:27 | 14.06540 | -87.30676 | 9521 ft | 204 kts | 281° |
| 2026-05-07 21:27 | 14.06551 | -87.31638 | 10329 ft | 203 kts | 262° |
| 2026-05-07 21:27 | 14.05991 | -87.32934 | 11515 ft | 199 kts | 231° |
| 2026-05-07 21:27 | 14.04913 | -87.33938 | 12210 ft | 224 kts | 214° |
| 2026-05-07 21:28 | 14.03467 | -87.34903 | 12285 ft | 266 kts | 208° |
| 2026-05-07 21:28 | 14.01270 | -87.36180 | 11951 ft | 277 kts | 206° |
| 2026-05-07 21:28 | 13.99567 | -87.37123 | 11674 ft | 278 kts | 205° |
| 2026-05-07 21:28 | 13.98418 | -87.37754 | 11519 ft | 277 kts | 205° |
| 2026-05-07 21:29 | 13.96745 | -87.38675 | 11410 ft | 276 kts | 205° |
| 2026-05-07 21:29 | 13.95057 | -87.39601 | 11391 ft | 275 kts | 206° |
| 2026-05-07 21:29 | 13.93358 | -87.40525 | 11290 ft | 277 kts | 205° |
| 2026-05-07 21:29 | 13.91661 | -87.41455 | 11135 ft | 276 kts | 205° |
| 2026-05-07 21:30 | 13.89971 | -87.42386 | 11041 ft | 274 kts | 205° |
| 2026-05-07 21:30 | 13.88284 | -87.43306 | 11023 ft | 275 kts | 206° |
| 2026-05-07 21:30 | 13.86592 | -87.44225 | 11005 ft | 275 kts | 205° |
| 2026-05-07 21:30 | 13.84855 | -87.45029 | 10981 ft | 273 kts | 192° |
| 2026-05-07 21:31 | 13.82979 | -87.45264 | 10994 ft | 272 kts | 179° |
| 2026-05-07 21:31 | 13.81085 | -87.45223 | 10990 ft | 272 kts | 174° |
| 2026-05-07 21:31 | 13.79185 | -87.45084 | 10992 ft | 282 kts | 172° |
| 2026-05-07 21:31 | 13.77153 | -87.44890 | 11017 ft | 299 kts | 172° |
| 2026-05-07 21:32 | 13.75066 | -87.44678 | 10981 ft | 303 kts | 172° |
| 2026-05-07 21:32 | 13.72957 | -87.44459 | 10973 ft | 304 kts | 171° |
| 2026-05-07 21:32 | 13.70848 | -87.44243 | 10951 ft | 304 kts | 171° |
| 2026-05-07 21:32 | 13.68745 | -87.44024 | 10943 ft | 304 kts | 172° |
| 2026-05-07 21:33 | 13.66646 | -87.43797 | 10939 ft | 304 kts | 171° |
| 2026-05-07 21:33 | 13.64541 | -87.43569 | 10937 ft | 304 kts | 172° |
| 2026-05-07 21:33 | 13.62464 | -87.43347 | 10888 ft | 304 kts | 171° |
| 2026-05-07 21:33 | 13.60351 | -87.43127 | 10887 ft | 304 kts | 172° |
| 2026-05-07 21:34 | 13.58243 | -87.42908 | 10895 ft | 305 kts | 172° |
| 2026-05-07 21:34 | 13.56134 | -87.42687 | 10893 ft | 305 kts | 172° |
| 2026-05-07 21:34 | 13.54043 | -87.42355 | 10870 ft | 303 kts | 163° |
| 2026-05-07 21:34 | 13.52049 | -87.41682 | 10886 ft | 301 kts | 156° |
| 2026-05-07 21:35 | 13.50119 | -87.40849 | 10890 ft | 300 kts | 153° |
| 2026-05-07 21:35 | 13.48219 | -87.39962 | 10869 ft | 299 kts | 152° |
| 2026-05-07 21:35 | 13.46329 | -87.39052 | 10871 ft | 300 kts | 152° |
| 2026-05-07 21:35 | 13.44465 | -87.38087 | 10851 ft | 299 kts | 145° |
| 2026-05-07 21:36 | 13.42984 | -87.36665 | 10810 ft | 295 kts | 125° |
| 2026-05-07 21:36 | 13.42095 | -87.34792 | 10816 ft | 292 kts | 105° |
| 2026-05-07 21:36 | 13.41927 | -87.32735 | 10857 ft | 289 kts | 84° |
| 2026-05-07 21:36 | 13.42498 | -87.30765 | 10867 ft | 290 kts | 64° |
| 2026-05-07 21:37 | 13.43739 | -87.29131 | 10867 ft | 292 kts | 44° |
| 2026-05-07 21:37 | 13.45488 | -87.28055 | 10869 ft | 297 kts | 24° |
| 2026-05-07 21:37 | 13.47514 | -87.27615 | 10903 ft | 300 kts | 9° |
| 2026-05-07 21:37 | 13.49602 | -87.27517 | 10965 ft | 301 kts | 3° |
| 2026-05-07 21:38 | 13.51635 | -87.27547 | 10854 ft | 282 kts | 1° |
| 2026-05-07 21:38 | 13.53543 | -87.27617 | 10520 ft | 269 kts | 360° |
| 2026-05-07 21:38 | 13.55395 | -87.27709 | 10191 ft | 264 kts | 359° |
| 2026-05-07 21:38 | 13.57223 | -87.27805 | 9888 ft | 262 kts | 359° |
| 2026-05-07 21:39 | 13.59039 | -87.27903 | 9613 ft | 261 kts | 359° |
| 2026-05-07 21:39 | 13.60849 | -87.28007 | 9353 ft | 260 kts | 359° |
| 2026-05-07 21:39 | 13.62658 | -87.28113 | 9185 ft | 259 kts | 359° |
| 2026-05-07 21:39 | 13.64421 | -87.28419 | 9211 ft | 261 kts | 343° |
| 2026-05-07 21:40 | 13.66182 | -87.28869 | 9259 ft | 263 kts | 350° |
| 2026-05-07 21:40 | 13.67958 | -87.29227 | 9213 ft | 263 kts | 354° |
| 2026-05-07 21:40 | 13.69773 | -87.29427 | 8987 ft | 262 kts | 358° |
| 2026-05-07 21:40 | 13.71589 | -87.29463 | 8500 ft | 259 kts | 4° |
| 2026-05-07 21:41 | 13.73358 | -87.29362 | 8235 ft | 250 kts | 8° |
| 2026-05-07 21:41 | 13.75061 | -87.29173 | 8081 ft | 243 kts | 8° |
| 2026-05-07 21:41 | 13.76749 | -87.29309 | 8016 ft | 246 kts | 352° |
| 2026-05-07 21:41 | 13.78444 | -87.29575 | 8042 ft | 246 kts | 357° |
| 2026-05-07 21:42 | 13.80155 | -87.29603 | 7940 ft | 246 kts | 5° |
| 2026-05-07 21:42 | 13.81850 | -87.29415 | 7780 ft | 244 kts | 11° |
| 2026-05-07 21:42 | 13.83509 | -87.29086 | 7609 ft | 242 kts | 15° |
| 2026-05-07 21:42 | 13.85143 | -87.28674 | 7448 ft | 240 kts | 17° |
| 2026-05-07 21:43 | 13.86759 | -87.28214 | 7280 ft | 241 kts | 19° |
| 2026-05-07 21:43 | 13.88366 | -87.27725 | 7138 ft | 241 kts | 20° |
| 2026-05-07 21:43 | 13.89961 | -87.27221 | 7077 ft | 239 kts | 19° |
| 2026-05-07 21:43 | 13.91555 | -87.26707 | 7046 ft | 241 kts | 20° |
| 2026-05-07 21:44 | 13.93117 | -87.26195 | 6889 ft | 224 kts | 21° |
| 2026-05-07 21:44 | 13.94509 | -87.25740 | 6803 ft | 200 kts | 21° |
| 2026-05-07 21:44 | 13.95841 | -87.25292 | 6809 ft | 205 kts | 22° |
| 2026-05-07 21:44 | 13.97168 | -87.24850 | 6769 ft | 188 kts | 23° |
| 2026-05-07 21:45 | 13.98296 | -87.24480 | 6730 ft | 162 kts | 21° |
| 2026-05-07 21:45 | 13.99371 | -87.24108 | 6529 ft | 168 kts | 23° |
| 2026-05-07 21:45 | 14.00533 | -87.23705 | 5918 ft | 182 kts | 24° |
| 2026-05-07 21:45 | 14.01707 | -87.23258 | 5401 ft | 175 kts | 24° |
| 2026-05-07 21:46 | 14.02786 | -87.22824 | 5311 ft | 169 kts | 26° |
| 2026-05-07 21:46 | 14.04014 | -87.22332 | 5190 ft | 220 kts | 20° |
| 2026-05-07 21:46 | 14.05642 | -87.22340 | 5960 ft | 249 kts | 346° |
| 2026-05-07 21:46 | 14.07072 | -87.23437 | 6797 ft | 271 kts | 304° |
| 2026-05-07 21:47 | 14.07684 | -87.25269 | 7360 ft | 274 kts | 277° |
| 2026-05-07 21:47 | 14.07425 | -87.27292 | 7009 ft | 298 kts | 243° |
| 2026-05-07 21:47 | 14.06109 | -87.28895 | 7205 ft | 290 kts | 212° |
| 2026-05-07 21:47 | 14.04314 | -87.29598 | 7481 ft | 268 kts | 184° |
| 2026-05-07 21:48 | 14.02460 | -87.29479 | 7200 ft | 267 kts | 165° |
| 2026-05-07 21:48 | 14.01985 | -87.29365 | 7071 ft | 269 kts | 163° |
| 2026-05-07 21:48 | 14.00652 | -87.29016 | 6608 ft | 278 kts | 164° |
| 2026-05-07 21:48 | 13.98771 | -87.28645 | 6524 ft | 272 kts | 171° |
| 2026-05-07 21:49 | 13.96893 | -87.28535 | 6280 ft | 277 kts | 178° |
| 2026-05-07 21:49 | 13.94964 | -87.28627 | 6075 ft | 277 kts | 182° |
| 2026-05-07 21:49 | 13.94665 | -87.28653 | 6015 ft | 277 kts | 182° |
| 2026-05-07 21:49 | 13.93099 | -87.28817 | 5749 ft | 272 kts | 182° |
| 2026-05-07 21:50 | 13.91294 | -87.28843 | 5793 ft | 245 kts | 163° |
| 2026-05-07 21:50 | 13.89652 | -87.28506 | 5244 ft | 250 kts | 169° |
| 2026-05-07 21:50 | 13.87816 | -87.28372 | 5253 ft | 282 kts | 175° |
| 2026-05-07 21:50 | 13.85756 | -87.28315 | 4921 ft | 304 kts | 176° |
| 2026-05-07 21:51 | 13.83870 | -87.27845 | 5714 ft | 253 kts | 141° |
| 2026-05-07 21:51 | 13.82958 | -87.26475 | 6050 ft | 235 kts | 96° |
| 2026-05-07 21:51 | 13.83428 | -87.24859 | 5672 ft | 253 kts | 43° |
| 2026-05-07 21:51 | 13.85039 | -87.24225 | 6097 ft | 263 kts | 358° |
| 2026-05-07 21:52 | 13.86928 | -87.24741 | 5728 ft | 309 kts | 343° |
| 2026-05-07 21:52 | 13.89001 | -87.25566 | 5488 ft | 307 kts | 340° |
| 2026-05-07 21:52 | 13.90777 | -87.26415 | 5790 ft | 256 kts | 334° |
| 2026-05-07 21:52 | 13.92239 | -87.27248 | 5964 ft | 225 kts | 334° |
| 2026-05-07 21:53 | 13.93622 | -87.27633 | 5992 ft | 199 kts | 6° |
| 2026-05-07 21:53 | 13.94828 | -87.27161 | 5965 ft | 182 kts | 40° |
| 2026-05-07 21:53 | 13.95724 | -87.26320 | 5972 ft | 167 kts | 45° |
| 2026-05-07 21:53 | 13.96625 | -87.25605 | 5895 ft | 164 kts | 38° |
| 2026-05-07 21:54 | 13.97626 | -87.24978 | 5637 ft | 171 kts | 34° |
| 2026-05-07 21:54 | 13.98744 | -87.24412 | 5305 ft | 187 kts | 28° |
| 2026-05-07 21:54 | 13.99958 | -87.23915 | 4884 ft | 183 kts | 25° |
| 2026-05-07 21:54 | 14.01122 | -87.23504 | 4442 ft | 175 kts | 22° |
| 2026-05-07 21:55 | 14.02213 | -87.23080 | 4252 ft | 163 kts | 26° |
| 2026-05-07 21:55 | 14.03340 | -87.22694 | 4091 ft | 182 kts | 14° |
| 2026-05-07 21:55 | 14.04529 | -87.22352 | 3681 ft | 167 kts | 29° |
| 2026-05-07 21:55 | 14.05561 | -87.21888 | 3308 ft | 159 kts | 17° |
| 2026-05-07 21:56 | 14.06384 | -87.21623 | 3274 ft | 69 kts | 21° |
| 2026-05-07 21:56 | 14.06585 | -87.21587 | 3269 ft | 14 kts | 294° |
| 2026-05-07 21:56 | 14.06558 | -87.21639 | 3272 ft | 9 kts | 204° |
| 2026-05-07 21:56 | 14.06491 | -87.21662 | 3272 ft | 11 kts | 198° |
| 2026-05-07 21:57 | 14.06410 | -87.21691 | 3273 ft | 13 kts | 200° |
| 2026-05-07 21:57 | 14.06323 | -87.21725 | 3276 ft | 13 kts | 199° |
| 2026-05-07 21:57 | 14.06236 | -87.21756 | 3272 ft | 13 kts | 199° |
| 2026-05-07 21:57 | 14.06142 | -87.21787 | 3269 ft | 15 kts | 197° |
| 2026-05-07 21:58 | 14.06092 | -87.21840 | 3273 ft | 6 kts | 279° |
| 2026-05-07 21:58 | 14.06102 | -87.21866 | 3272 ft | 0 kts | 288° |